Belden, Mississippi
Current Conditions -  °F | °C
As of 4:53 PM on Wednesday 17 Dec 2014 (Local Time) from KTUP Reporting Station
Clear Clear  
Wind Chill: 46°   Ceiling: Unl
Heat Index: 46°   Visibility: 10mi
Dew Point: 35°   Wind: 3mph
Humidity: 66%   Direction: 350°N
Pressure: 30.24"   Gusts: NA
Location:  34.31°N, 88.79°W
Report Text: KTUP 172253Z 35003KT 10SM CLR 08/02 A3024 RMK AO2 SLP242 T00780017
Loading
Personal Weather Stations






























Interactive Weather Map New forecast layout! Learn more

10-Day Weather Forecast

Advertisements
Track Severe Weather on mobile